createdAt,value
2023-01-29T00:01:11.406Z,40.15
2023-01-29T00:03:40.311Z,40.74
2023-01-29T00:06:09.751Z,40.64
2023-01-29T00:08:38.104Z,39.69
2023-01-29T00:11:08.325Z,39.56
2023-01-29T00:13:36.561Z,40.26
2023-01-29T00:16:04.343Z,40.34
2023-01-29T00:18:31.847Z,39.96
2023-01-29T00:21:00.390Z,40.65
2023-01-29T00:23:27.445Z,40.12
2023-01-29T00:25:54.663Z,40.71
2023-01-29T00:28:21.863Z,40.38
2023-01-29T00:30:48.966Z,40.29
2023-01-29T00:33:16.088Z,39.85
2023-01-29T00:35:43.227Z,40.97
2023-01-29T00:38:11.884Z,40.67
2023-01-29T00:40:40.164Z,40.90
2023-01-29T00:43:07.305Z,40.70
2023-01-29T00:45:34.906Z,40.39
2023-01-29T00:48:02.060Z,39.72
2023-01-29T00:50:29.864Z,40.67
2023-01-29T00:52:57.063Z,40.11
2023-01-29T00:55:25.743Z,40.40
2023-01-29T00:57:52.824Z,40.30
2023-01-29T01:00:21.607Z,40.60
2023-01-29T01:02:48.789Z,39.72
2023-01-29T01:05:20.192Z,40.36
2023-01-29T01:07:48.981Z,39.95
2023-01-29T01:10:19.200Z,40.29
2023-01-29T01:12:49.267Z,40.35
2023-01-29T01:15:17.165Z,39.85
2023-01-29T01:17:44.317Z,40.27
2023-01-29T01:20:12.778Z,40.01
2023-01-29T01:22:39.966Z,39.51
2023-01-29T01:25:07.644Z,39.43
2023-01-29T01:27:34.992Z,39.82
2023-01-29T01:30:04.424Z,39.82
2023-01-29T01:32:31.563Z,40.24
2023-01-29T01:34:58.627Z,40.50
2023-01-29T01:37:25.743Z,40.19
2023-01-29T01:39:52.864Z,40.03
2023-01-29T01:42:20.025Z,40.51
2023-01-29T01:44:56.867Z,40.21
2023-01-29T01:47:31.022Z,40.42
2023-01-29T01:50:05.685Z,41.02
2023-01-29T01:52:33.742Z,40.97
2023-01-29T01:55:02.023Z,40.63
2023-01-29T01:57:32.367Z,40.46
2023-01-29T02:00:05.063Z,40.51
2023-01-29T02:02:33.736Z,40.95
2023-01-29T02:05:00.935Z,40.94
2023-01-29T02:07:28.083Z,40.78
2023-01-29T02:10:05.836Z,41.25
2023-01-29T02:12:34.162Z,41.32
2023-01-29T02:15:02.184Z,40.99
2023-01-29T02:17:29.417Z,52.45
2023-01-29T02:20:10.543Z,40.94
2023-01-29T02:23:08.526Z,42.94
2023-01-29T02:26:19.262Z,40.46
2023-01-29T02:28:59.043Z,41.12
2023-01-29T02:31:35.115Z,40.92
2023-01-29T02:34:17.483Z,41.30
2023-01-29T02:36:51.467Z,42.31
2023-01-29T02:39:29.663Z,41.35
2023-01-29T02:42:07.384Z,40.94
2023-01-29T02:44:42.584Z,46.91
2023-01-29T02:47:19.226Z,42.48
2023-01-29T02:49:52.999Z,41.44
2023-01-29T02:52:25.984Z,40.14
2023-01-29T02:54:59.602Z,43.82
2023-01-29T02:57:33.026Z,42.15
2023-01-29T03:00:10.094Z,42.76
2023-01-29T03:02:43.318Z,40.53
2023-01-29T03:05:15.705Z,40.69
2023-01-29T03:07:56.735Z,42.09
2023-01-29T03:10:30.022Z,41.84
2023-01-29T03:13:03.462Z,40.78
2023-01-29T03:15:39.845Z,42.01
2023-01-29T03:18:12.625Z,41.41
2023-01-29T03:20:46.102Z,40.41
2023-01-29T03:23:18.944Z,39.59
2023-01-29T03:25:46.495Z,39.86
2023-01-29T03:28:18.244Z,39.78
2023-01-29T03:30:51.955Z,40.35
2023-01-29T03:33:24.726Z,40.77
2023-01-29T03:35:58.728Z,40.80
2023-01-29T03:38:26.003Z,41.00
2023-01-29T03:40:59.719Z,39.44
2023-01-29T03:43:36.404Z,39.64
2023-01-29T03:46:11.666Z,40.96
2023-01-29T03:48:50.980Z,39.59
2023-01-29T03:51:28.664Z,39.08
2023-01-29T03:54:07.740Z,40.15
2023-01-29T03:56:45.665Z,40.10
2023-01-29T03:59:26.344Z,39.30
2023-01-29T04:01:58.282Z,40.00
2023-01-29T04:04:29.264Z,39.72
2023-01-29T04:07:04.423Z,40.45
2023-01-29T04:09:39.046Z,39.94
2023-01-29T04:12:08.719Z,39.92
2023-01-29T04:14:37.508Z,40.15
2023-01-29T04:17:13.186Z,39.76
2023-01-29T04:19:41.604Z,39.73
2023-01-29T04:22:17.691Z,40.41
2023-01-29T04:24:45.765Z,39.95
2023-01-29T04:27:26.423Z,39.69
2023-01-29T04:30:17.645Z,39.09
2023-01-29T04:33:03.151Z,38.89
2023-01-29T04:35:37.142Z,40.99
2023-01-29T04:38:15.414Z,39.76
2023-01-29T04:40:51.365Z,40.28
2023-01-29T04:43:28.241Z,41.10
2023-01-29T04:46:12.130Z,39.65
2023-01-29T04:49:00.493Z,40.31
2023-01-29T04:51:43.627Z,39.52
2023-01-29T04:54:22.741Z,40.33
2023-01-29T04:56:57.323Z,40.36
2023-01-29T04:59:33.701Z,38.96
2023-01-29T05:02:02.412Z,38.98
2023-01-29T05:04:35.885Z,39.54
2023-01-29T05:07:07.763Z,39.64
2023-01-29T05:09:38.031Z,39.34
2023-01-29T05:12:09.444Z,39.71
2023-01-29T05:14:40.002Z,39.14
2023-01-29T05:17:14.810Z,39.13
2023-01-29T05:19:44.022Z,40.51
2023-01-29T05:22:16.159Z,39.16
2023-01-29T05:24:43.337Z,39.49
2023-01-29T05:27:15.622Z,38.81
2023-01-29T05:29:47.157Z,39.86
2023-01-29T05:32:16.140Z,38.97
2023-01-29T05:34:44.783Z,39.53
2023-01-29T05:37:11.862Z,39.60
2023-01-29T05:39:39.002Z,38.16
2023-01-29T05:42:06.242Z,38.53
2023-01-29T05:44:33.450Z,39.33
2023-01-29T05:47:00.583Z,40.22
2023-01-29T05:49:27.674Z,39.31
2023-01-29T05:51:56.383Z,38.94
2023-01-29T05:54:23.548Z,39.43
2023-01-29T05:56:50.722Z,38.72
2023-01-29T05:59:17.842Z,39.90
2023-01-29T06:01:45.164Z,38.91
2023-01-29T06:04:12.325Z,39.55
2023-01-29T06:06:39.426Z,39.76
2023-01-29T06:09:10.183Z,39.14
2023-01-29T06:11:37.314Z,38.84
2023-01-29T06:14:04.402Z,39.71
2023-01-29T06:16:31.767Z,38.45
2023-01-29T06:18:58.942Z,39.34
2023-01-29T06:21:26.125Z,38.44
2023-01-29T06:23:53.493Z,39.16
2023-01-29T06:26:22.245Z,39.09
2023-01-29T06:28:50.444Z,38.29
2023-01-29T06:31:36.895Z,39.32
2023-01-29T06:34:05.624Z,39.12
2023-01-29T06:36:32.906Z,39.33
2023-01-29T06:39:00.191Z,39.07
2023-01-29T06:41:28.887Z,39.47
2023-01-29T06:43:56.082Z,39.86
2023-01-29T06:46:23.196Z,40.00
2023-01-29T06:48:50.340Z,39.92
2023-01-29T06:51:17.536Z,38.12
2023-01-29T06:53:46.265Z,38.03
2023-01-29T06:56:13.939Z,39.76
2023-01-29T06:58:42.543Z,39.76
2023-01-29T07:01:17.541Z,38.39
2023-01-29T07:03:52.826Z,39.76
2023-01-29T07:06:20.243Z,37.67
2023-01-29T07:08:47.410Z,39.76
2023-01-29T07:11:14.474Z,40.25
2023-01-29T07:13:43.043Z,39.84
2023-01-29T07:16:10.613Z,38.09
2023-01-29T07:18:37.926Z,39.13
2023-01-29T07:21:06.326Z,39.46
2023-01-29T07:23:33.491Z,38.41
2023-01-29T07:26:01.845Z,39.04
2023-01-29T07:28:29.304Z,39.59
2023-01-29T07:30:58.899Z,38.19
2023-01-29T07:33:26.924Z,38.33
2023-01-29T07:35:54.106Z,37.73
2023-01-29T07:38:21.247Z,38.54
2023-01-29T07:40:48.545Z,38.60
2023-01-29T07:43:15.844Z,37.91
2023-01-29T07:45:43.045Z,37.60
2023-01-29T07:48:13.183Z,38.71
2023-01-29T07:50:41.228Z,38.26
2023-01-29T07:53:14.111Z,39.02
2023-01-29T07:55:43.925Z,38.32
2023-01-29T07:58:11.650Z,38.31
2023-01-29T08:00:39.135Z,38.49
2023-01-29T08:03:10.544Z,39.76
2023-01-29T08:05:39.203Z,38.13
2023-01-29T08:08:07.812Z,38.33
2023-01-29T08:10:36.106Z,37.45
2023-01-29T08:13:04.812Z,38.49
2023-01-29T08:15:36.047Z,38.06
2023-01-29T08:18:05.156Z,37.56
2023-01-29T08:20:32.386Z,37.77
2023-01-29T08:23:03.749Z,37.61
2023-01-29T08:25:30.936Z,37.62
2023-01-29T08:27:59.599Z,38.29
2023-01-29T08:30:28.351Z,37.54
2023-01-29T08:32:55.783Z,38.25
2023-01-29T08:35:23.344Z,48.82
2023-01-29T08:37:54.626Z,43.49
2023-01-29T08:40:24.106Z,40.23
2023-01-29T08:42:51.227Z,38.29
2023-01-29T08:45:18.644Z,37.29
2023-01-29T08:47:46.786Z,36.71
2023-01-29T08:50:14.430Z,36.81
2023-01-29T08:52:41.782Z,34.86
2023-01-29T08:55:09.762Z,30.02
2023-01-29T08:57:39.298Z,31.78
2023-01-29T09:00:09.307Z,32.08
2023-01-29T09:02:36.504Z,33.27
2023-01-29T09:05:04.259Z,33.40
2023-01-29T09:07:31.445Z,34.14
2023-01-29T09:09:58.704Z,34.51
2023-01-29T09:12:25.905Z,34.74
2023-01-29T09:14:54.544Z,34.29
2023-01-29T09:17:21.713Z,35.52
2023-01-29T09:19:48.987Z,35.72
2023-01-29T09:22:16.187Z,35.90
2023-01-29T09:24:43.381Z,38.26
2023-01-29T09:27:10.503Z,38.20
2023-01-29T09:29:38.247Z,36.98
2023-01-29T09:32:07.585Z,36.93
2023-01-29T09:34:34.744Z,36.97
2023-01-29T09:37:01.945Z,37.32
2023-01-29T09:39:29.719Z,37.32
2023-01-29T09:42:08.346Z,37.12
2023-01-29T09:44:51.244Z,36.76
2023-01-29T09:47:24.373Z,37.09
2023-01-29T09:49:56.985Z,36.42
2023-01-29T09:52:30.423Z,36.44
2023-01-29T09:55:05.117Z,36.67
2023-01-29T09:57:41.744Z,37.51
2023-01-29T10:00:16.485Z,37.65
2023-01-29T10:03:15.864Z,38.15
2023-01-29T10:06:04.410Z,36.47
2023-01-29T10:09:03.043Z,37.26
2023-01-29T10:11:43.952Z,36.85
2023-01-29T10:14:22.350Z,37.41
2023-01-29T10:17:07.976Z,36.52
2023-01-29T10:20:01.386Z,36.59
2023-01-29T10:22:44.660Z,36.86
2023-01-29T10:25:16.230Z,36.46
2023-01-29T10:27:50.076Z,37.49
2023-01-29T10:30:30.950Z,36.34
2023-01-29T10:33:02.943Z,36.55
2023-01-29T10:35:37.735Z,36.77
2023-01-29T10:38:24.472Z,36.96
2023-01-29T10:41:05.603Z,36.18
2023-01-29T10:43:44.685Z,37.57
2023-01-29T10:46:25.523Z,37.08
2023-01-29T10:49:08.563Z,37.20
2023-01-29T10:51:56.827Z,36.82
2023-01-29T10:54:51.865Z,36.60
2023-01-29T10:57:41.905Z,37.54
2023-01-29T11:00:17.423Z,36.83
2023-01-29T11:02:46.089Z,36.91
2023-01-29T11:05:23.685Z,37.38
2023-01-29T11:08:03.523Z,37.32
2023-01-29T11:10:37.623Z,36.89
2023-01-29T11:13:06.068Z,37.42
2023-01-29T11:15:34.064Z,37.65
2023-01-29T11:18:03.005Z,37.13
2023-01-29T11:20:32.071Z,37.09
2023-01-29T11:23:00.747Z,37.39
2023-01-29T11:25:28.950Z,37.39
2023-01-29T11:27:58.885Z,36.85
2023-01-29T11:30:29.060Z,36.93
2023-01-29T11:33:09.048Z,37.28
2023-01-29T11:35:37.333Z,36.71
2023-01-29T11:38:19.863Z,35.87
2023-01-29T11:40:47.725Z,36.77
2023-01-29T11:43:28.163Z,36.57
2023-01-29T11:45:58.906Z,36.94
2023-01-29T11:48:39.730Z,36.58
2023-01-29T11:51:10.323Z,35.76
2023-01-29T11:53:43.665Z,35.95
2023-01-29T11:56:23.417Z,35.01
2023-01-29T11:58:57.739Z,34.97
2023-01-29T12:01:33.404Z,35.11
2023-01-29T12:04:02.906Z,36.16
2023-01-29T12:06:36.566Z,35.35
2023-01-29T12:09:17.307Z,35.23
2023-01-29T12:11:45.035Z,35.41
2023-01-29T12:14:28.173Z,35.14
2023-01-29T12:17:01.388Z,35.87
2023-01-29T12:19:36.764Z,35.13
2023-01-29T12:22:12.217Z,34.36
2023-01-29T12:24:50.265Z,34.77
2023-01-29T12:27:25.444Z,35.10
2023-01-29T12:30:02.163Z,35.17
2023-01-29T12:32:41.143Z,35.05
2023-01-29T12:35:20.284Z,38.81
2023-01-29T12:37:58.452Z,35.16
2023-01-29T12:40:33.504Z,34.90
2023-01-29T12:43:12.026Z,35.58
2023-01-29T12:45:43.385Z,35.74
2023-01-29T12:48:20.104Z,34.92
2023-01-29T12:50:50.283Z,35.04
2023-01-29T12:53:32.765Z,35.34
2023-01-29T12:56:11.762Z,34.96
2023-01-29T12:58:46.370Z,34.74
2023-01-29T13:01:24.394Z,34.91
2023-01-29T13:03:59.495Z,34.07
2023-01-29T13:06:38.486Z,34.56
2023-01-29T13:09:13.840Z,33.99
2023-01-29T13:11:55.824Z,34.79
2023-01-29T13:14:27.864Z,35.29
2023-01-29T13:17:09.424Z,42.31
2023-01-29T13:19:42.404Z,40.04
2023-01-29T13:22:21.006Z,32.56
2023-01-29T13:25:04.033Z,32.40
2023-01-29T13:27:39.798Z,33.01
2023-01-29T13:30:23.444Z,33.62
2023-01-29T13:32:55.793Z,33.64
2023-01-29T13:35:24.307Z,34.26
2023-01-29T13:37:56.945Z,34.40
2023-01-29T13:40:29.444Z,34.79
2023-01-29T13:43:02.075Z,34.61
2023-01-29T13:45:45.128Z,34.63
2023-01-29T13:48:26.470Z,34.59
2023-01-29T13:50:59.246Z,34.33
2023-01-29T13:53:31.712Z,34.28
2023-01-29T13:56:34.251Z,34.29
2023-01-29T13:59:08.745Z,34.31
2023-01-29T14:02:02.996Z,35.29
2023-01-29T14:04:33.365Z,34.35
2023-01-29T14:07:23.485Z,34.46
2023-01-29T14:10:28.544Z,34.70
2023-01-29T14:13:29.716Z,34.67
2023-01-29T14:16:36.790Z,35.46
2023-01-29T14:19:07.890Z,34.73
2023-01-29T14:21:40.212Z,34.52
2023-01-29T14:24:22.344Z,34.08
2023-01-29T14:26:57.074Z,34.91
2023-01-29T14:29:35.025Z,35.96
2023-01-29T14:32:21.728Z,35.49
2023-01-29T14:34:57.144Z,35.86
2023-01-29T14:37:35.658Z,36.02
2023-01-29T14:40:21.066Z,36.32
2023-01-29T14:43:01.610Z,35.98
2023-01-29T14:45:33.066Z,36.38
2023-01-29T14:48:24.495Z,36.42
2023-01-29T14:51:05.663Z,35.90
2023-01-29T14:53:55.038Z,35.93
2023-01-29T14:56:35.488Z,35.53
2023-01-29T14:59:16.647Z,35.79
2023-01-29T15:01:52.486Z,36.22
2023-01-29T15:04:28.641Z,36.41
2023-01-29T15:07:07.350Z,36.24
2023-01-29T15:09:43.928Z,35.50
2023-01-29T15:12:26.245Z,35.29
2023-01-29T15:15:17.338Z,35.94
2023-01-29T15:17:56.445Z,35.67
2023-01-29T15:20:32.706Z,36.23
2023-01-29T15:23:04.208Z,35.41
2023-01-29T15:25:49.110Z,36.25
2023-01-29T15:28:16.504Z,36.45
2023-01-29T15:30:44.622Z,35.49
2023-01-29T15:33:15.496Z,36.90
2023-01-29T15:35:43.658Z,36.54
2023-01-29T15:38:19.462Z,36.04
2023-01-29T15:40:54.543Z,35.89
2023-01-29T15:43:23.772Z,35.51
2023-01-29T15:45:53.749Z,35.63
2023-01-29T15:48:28.347Z,35.41
2023-01-29T15:50:57.166Z,35.83
2023-01-29T15:53:36.824Z,36.24
2023-01-29T15:56:12.989Z,35.78
2023-01-29T15:58:43.996Z,36.15
2023-01-29T16:01:17.618Z,36.73
2023-01-29T16:03:51.229Z,35.99
2023-01-29T16:06:22.647Z,36.64
2023-01-29T16:08:55.235Z,36.34
2023-01-29T16:11:23.185Z,35.96
2023-01-29T16:13:56.745Z,36.11
2023-01-29T16:16:26.555Z,36.97
2023-01-29T16:19:00.484Z,36.30
2023-01-29T16:21:39.105Z,37.03
2023-01-29T16:24:11.624Z,36.58
2023-01-29T16:26:46.279Z,36.94
2023-01-29T16:29:23.004Z,36.70
2023-01-29T16:31:56.243Z,36.49
2023-01-29T16:34:30.934Z,36.53
2023-01-29T16:37:02.209Z,36.80
2023-01-29T16:39:37.365Z,37.04
2023-01-29T16:42:27.746Z,36.44
2023-01-29T16:45:02.025Z,36.65
2023-01-29T16:48:05.903Z,36.79
2023-01-29T16:50:53.893Z,36.74
2023-01-29T16:53:23.823Z,37.07
2023-01-29T16:55:57.324Z,36.78
2023-01-29T16:58:29.644Z,37.45
2023-01-29T17:01:02.729Z,37.33
2023-01-29T17:03:37.842Z,37.42
2023-01-29T17:06:13.206Z,36.70
2023-01-29T17:08:44.823Z,37.40
2023-01-29T17:11:30.160Z,37.36
2023-01-29T17:13:59.384Z,37.40
2023-01-29T17:16:33.798Z,37.03
2023-01-29T17:19:13.563Z,36.91
2023-01-29T17:21:45.409Z,36.93
2023-01-29T17:24:14.484Z,37.42
2023-01-29T17:26:49.660Z,38.06
2023-01-29T17:29:25.303Z,38.23
2023-01-29T17:31:52.523Z,38.02
2023-01-29T17:34:19.684Z,37.60
2023-01-29T17:36:46.907Z,37.94
2023-01-29T17:39:20.851Z,37.44
2023-01-29T17:42:03.208Z,38.06
2023-01-29T17:44:30.424Z,37.86
2023-01-29T17:46:57.625Z,37.78
2023-01-29T17:49:29.846Z,36.95
2023-01-29T17:51:59.087Z,37.40
2023-01-29T17:54:27.670Z,38.11
2023-01-29T17:57:00.706Z,38.54
2023-01-29T17:59:34.383Z,38.60
2023-01-29T18:02:02.004Z,38.77
2023-01-29T18:04:29.288Z,38.97
2023-01-29T18:06:58.864Z,38.73
2023-01-29T18:09:29.049Z,39.31
2023-01-29T18:11:58.408Z,39.67
2023-01-29T18:14:25.625Z,39.54
2023-01-29T18:16:52.865Z,39.69
2023-01-29T18:19:22.692Z,39.65
2023-01-29T18:21:50.558Z,39.51
2023-01-29T18:24:18.645Z,39.44
2023-01-29T18:26:45.920Z,39.69
2023-01-29T18:29:14.685Z,39.28
2023-01-29T18:31:42.098Z,39.71
2023-01-29T18:34:09.326Z,39.45
2023-01-29T18:36:36.466Z,40.18
2023-01-29T18:39:03.823Z,40.25
2023-01-29T18:41:30.966Z,40.25
2023-01-29T18:43:58.144Z,40.31
2023-01-29T18:46:26.764Z,39.61
2023-01-29T18:48:53.934Z,39.77
2023-01-29T18:51:21.104Z,40.11
2023-01-29T18:53:50.271Z,39.79
2023-01-29T18:56:18.236Z,39.92
2023-01-29T18:58:45.524Z,40.07
2023-01-29T19:01:19.772Z,40.05
2023-01-29T19:03:48.724Z,39.55
2023-01-29T19:06:15.962Z,39.75
2023-01-29T19:08:43.264Z,39.76
2023-01-29T19:11:11.519Z,40.19
2023-01-29T19:13:38.736Z,40.39
2023-01-29T19:16:08.167Z,40.31
2023-01-29T19:18:35.410Z,40.40
2023-01-29T19:21:09.727Z,40.87
2023-01-29T19:23:37.395Z,40.95
2023-01-29T19:26:05.125Z,40.66
2023-01-29T19:28:33.307Z,40.81
2023-01-29T19:31:01.479Z,40.98
2023-01-29T19:33:29.349Z,40.73
2023-01-29T19:35:56.995Z,40.87
2023-01-29T19:38:26.590Z,41.14
2023-01-29T19:40:53.824Z,40.70
2023-01-29T19:43:21.613Z,41.43
2023-01-29T19:45:50.307Z,41.29
2023-01-29T19:48:18.095Z,41.29
2023-01-29T19:50:51.390Z,40.74
2023-01-29T19:53:18.510Z,55.42
2023-01-29T19:55:47.167Z,42.82
2023-01-29T19:58:14.691Z,37.53
2023-01-29T20:00:41.868Z,33.24
2023-01-29T20:03:09.029Z,30.51
2023-01-29T20:05:36.687Z,32.16
2023-01-29T20:08:04.260Z,33.14
2023-01-29T20:10:31.570Z,34.55
2023-01-29T20:13:00.367Z,35.56
2023-01-29T20:15:27.584Z,36.24
2023-01-29T20:17:54.686Z,36.94
2023-01-29T20:20:21.910Z,37.84
2023-01-29T20:22:51.498Z,38.21
2023-01-29T20:25:19.985Z,38.94
2023-01-29T20:27:47.525Z,38.96
2023-01-29T20:30:16.958Z,39.55
2023-01-29T20:32:44.286Z,40.11
2023-01-29T20:35:11.507Z,39.80
2023-01-29T20:37:38.708Z,40.61
2023-01-29T20:40:07.284Z,40.72
2023-01-29T20:42:34.471Z,40.39
2023-01-29T20:45:01.808Z,40.65
2023-01-29T20:47:30.406Z,40.40
2023-01-29T20:49:58.165Z,40.97
2023-01-29T20:52:25.486Z,40.85
2023-01-29T20:54:52.807Z,40.59
2023-01-29T20:57:22.049Z,40.84
2023-01-29T20:59:49.368Z,40.78
2023-01-29T21:02:16.729Z,41.09
2023-01-29T21:04:45.324Z,41.22
2023-01-29T21:07:12.745Z,41.42
2023-01-29T21:09:40.141Z,41.62
2023-01-29T21:12:07.545Z,41.83
2023-01-29T21:14:34.931Z,41.28
2023-01-29T21:17:02.608Z,41.19
2023-01-29T21:19:29.745Z,41.24
2023-01-29T21:21:58.585Z,41.98
2023-01-29T21:24:27.336Z,42.19
2023-01-29T21:26:54.746Z,41.56
2023-01-29T21:29:22.575Z,41.89
2023-01-29T21:31:50.202Z,41.79
2023-01-29T21:34:18.325Z,41.38
2023-01-29T21:36:45.984Z,42.01
2023-01-29T21:39:14.744Z,41.12
2023-01-29T21:41:44.265Z,41.40
2023-01-29T21:44:11.712Z,41.46
2023-01-29T21:46:39.480Z,41.30
2023-01-29T21:49:07.474Z,41.89
2023-01-29T21:51:35.626Z,41.67
2023-01-29T21:54:02.743Z,41.89
2023-01-29T21:56:31.369Z,42.21
2023-01-29T21:58:58.543Z,42.25
2023-01-29T22:01:37.831Z,42.63
2023-01-29T22:04:05.944Z,42.56
2023-01-29T22:06:33.204Z,42.10
2023-01-29T22:09:00.383Z,42.75
2023-01-29T22:11:27.803Z,42.63
2023-01-29T22:13:56.966Z,43.04
2023-01-29T22:16:24.186Z,42.98
2023-01-29T22:18:51.402Z,42.81
2023-01-29T22:21:18.647Z,42.77
2023-01-29T22:23:49.001Z,42.88
2023-01-29T22:26:16.856Z,42.82
2023-01-29T22:28:46.265Z,42.90
2023-01-29T22:31:14.993Z,42.83
2023-01-29T22:33:44.502Z,45.32
2023-01-29T22:36:11.711Z,42.43
2023-01-29T22:38:38.964Z,42.94
2023-01-29T22:41:06.203Z,42.51
2023-01-29T22:43:33.395Z,42.90
2023-01-29T22:46:00.620Z,42.54
2023-01-29T22:48:29.286Z,43.05
2023-01-29T22:50:57.839Z,42.88
2023-01-29T22:53:25.105Z,42.63
2023-01-29T22:55:55.521Z,43.28
2023-01-29T22:58:22.732Z,42.76
2023-01-29T23:00:50.784Z,42.79
2023-01-29T23:03:18.127Z,42.53
2023-01-29T23:05:46.728Z,42.70
2023-01-29T23:08:13.870Z,42.33
2023-01-29T23:10:41.474Z,42.62
2023-01-29T23:13:08.683Z,42.28
2023-01-29T23:15:35.826Z,42.66
2023-01-29T23:18:04.062Z,42.24
2023-01-29T23:20:31.344Z,41.96
2023-01-29T23:23:00.145Z,42.51
2023-01-29T23:25:27.508Z,42.51
2023-01-29T23:27:54.623Z,42.49
2023-01-29T23:30:21.735Z,42.75
2023-01-29T23:32:49.099Z,42.15
2023-01-29T23:35:16.343Z,42.84
2023-01-29T23:37:43.581Z,42.13
2023-01-29T23:40:13.302Z,42.13
2023-01-29T23:42:40.462Z,42.28
2023-01-29T23:45:08.622Z,42.47
2023-01-29T23:47:35.725Z,42.25
2023-01-29T23:50:02.902Z,42.11
2023-01-29T23:52:30.385Z,41.99
2023-01-29T23:54:58.165Z,42.56
2023-01-29T23:57:26.783Z,41.84
2023-01-29T23:59:53.943Z,41.51
